Time;durP1;ratioP1;P1;durP2;ratioP2;P2;SDS_P1;SDS_P2;PMS_P1;PMS_P2;Temp;Humidity;BMP_temperature;BMP_pressure;BME280_temperature;BME280_humidity;BME280_pressure;Samples;Min_cycle;Max_cycle;Signal;HPM_P1;HPM_P2
2022/10/14 00:01:03;;;;;;;78.18;45.15;;;14.20;99.90;;;;;;5024548;28;20204;-74
2022/10/14 00:03:30;;;;;;;59.35;41.10;;;14.20;99.90;;;;;;5018002;28;20208;-75
2022/10/14 00:05:57;;;;;;;68.70;45.08;;;14.20;99.90;;;;;;5021955;28;20664;-74
2022/10/14 00:08:24;;;;;;;77.82;47.45;;;14.20;99.90;;;;;;5017215;28;20318;-73
2022/10/14 00:10:51;;;;;;;74.30;44.97;;;14.20;99.90;;;;;;5022315;28;20208;-76
2022/10/14 00:13:19;;;;;;;76.80;45.45;;;14.20;99.90;;;;;;5013765;28;20208;-73
2022/10/14 00:15:46;;;;;;;69.47;43.22;;;14.20;99.90;;;;;;5027733;28;20200;-76
2022/10/14 00:18:13;;;;;;;61.00;41.10;;;14.20;99.90;;;;;;5024485;28;20310;-75
2022/10/14 00:20:40;;;;;;;64.90;41.63;;;14.30;99.90;;;;;;5020453;28;20208;-74
2022/10/14 00:23:07;;;;;;;73.97;46.10;;;14.30;99.90;;;;;;5020348;28;20289;-74
2022/10/14 00:25:37;;;;;;;61.90;41.78;;;14.40;99.90;;;;;;5016352;28;20295;-74
2022/10/14 00:28:05;;;;;;;63.17;43.13;;;14.30;99.90;;;;;;5028321;28;20319;-74
2022/10/14 00:30:33;;;;;;;85.65;47.47;;;14.40;99.90;;;;;;5017882;28;20585;-72
2022/10/14 00:33:00;;;;;;;78.88;48.15;;;14.50;99.90;;;;;;5016254;28;20293;-76
2022/10/14 00:35:27;;;;;;;62.53;40.78;;;14.40;99.90;;;;;;5013236;28;20204;-73
2022/10/14 00:37:54;;;;;;;71.22;43.65;;;14.50;99.90;;;;;;5018105;28;20299;-75
2022/10/14 00:40:21;;;;;;;73.63;47.25;;;14.40;99.90;;;;;;5029722;28;20307;-73
2022/10/14 00:42:48;;;;;;;62.05;43.13;;;14.40;99.90;;;;;;5011530;28;20197;-74
2022/10/14 00:45:20;;;;;;;62.17;42.67;;;14.40;99.90;;;;;;5017547;28;20720;-74
2022/10/14 00:47:52;;;;;;;72.47;43.80;;;14.40;99.90;;;;;;5016340;28;20254;-75
2022/10/14 00:50:21;;;;;;;65.55;42.80;;;14.40;99.90;;;;;;5031654;28;20204;-76
2022/10/14 00:52:49;;;;;;;67.32;45.67;;;14.50;99.90;;;;;;5017692;28;20206;-73
2022/10/14 00:55:18;;;;;;;69.82;42.20;;;14.50;99.90;;;;;;5015444;28;20203;-75
2022/10/14 00:57:45;;;;;;;64.20;43.65;;;14.40;99.90;;;;;;5034092;28;20215;-76
2022/10/14 01:00:15;;;;;;;77.25;44.45;;;14.40;99.90;;;;;;5026310;28;20211;-75
2022/10/14 01:02:42;;;;;;;60.20;40.95;;;14.40;99.90;;;;;;5018538;28;20252;-74
2022/10/14 01:05:13;;;;;;;57.83;40.97;;;14.50;99.90;;;;;;5025714;28;20252;-75
2022/10/14 01:07:52;;;;;;;78.55;46.30;;;14.50;99.90;;;;;;5026716;28;20311;-74
2022/10/14 01:10:26;;;;;;;77.25;47.15;;;14.40;99.90;;;;;;5021325;28;20299;-75
2022/10/14 01:13:06;;;;;;;79.85;45.95;;;14.30;99.90;;;;;;5020358;28;20240;-74
2022/10/14 01:15:41;;;;;;;87.00;46.25;;;14.30;99.90;;;;;;5023102;28;20224;-76
2022/10/14 01:18:23;;;;;;;74.20;46.47;;;14.30;99.90;;;;;;5027539;28;20262;-74
2022/10/14 01:21:06;;;;;;;97.70;51.53;;;14.20;99.90;;;;;;5023796;28;20211;-75
2022/10/14 01:24:18;;;;;;;94.28;51.83;;;14.10;99.90;;;;;;5027655;28;20231;-75
2022/10/14 01:27:22;;;;;;;103.35;54.25;;;14.10;99.90;;;;;;5022899;28;20626;-75
2022/10/14 01:30:05;;;;;;;88.88;53.55;;;14.00;99.90;;;;;;5014091;28;20651;-74
2022/10/14 01:32:38;;;;;;;79.22;48.67;;;14.10;99.90;;;;;;5019443;28;20301;-72
2022/10/14 01:35:13;;;;;;;96.45;49.28;;;14.10;99.90;;;;;;5025892;28;20292;-73
2022/10/14 01:37:49;;;;;;;95.97;53.08;;;14.00;99.90;;;;;;5025244;28;20277;-73
2022/10/14 01:40:25;;;;;;;92.30;51.15;;;14.00;99.90;;;;;;5027807;28;20254;-76
2022/10/14 01:42:53;;;;;;;87.93;48.60;;;14.00;99.90;;;;;;5020615;28;20727;-74
2022/10/14 01:45:23;;;;;;;89.50;50.70;;;14.00;99.90;;;;;;5030633;28;20250;-74
2022/10/14 01:47:52;;;;;;;87.28;48.72;;;13.90;99.90;;;;;;5021896;28;20323;-74
2022/10/14 01:50:23;;;;;;;81.85;48.63;;;13.90;99.90;;;;;;5024133;28;20232;-75
2022/10/14 01:52:53;;;;;;;75.65;46.95;;;13.90;99.90;;;;;;5015326;28;20651;-73
2022/10/14 01:55:24;;;;;;;101.18;51.85;;;14.00;99.90;;;;;;5029303;28;20204;-75
2022/10/14 01:57:53;;;;;;;95.60;53.38;;;13.90;99.90;;;;;;5026387;28;20692;-74
2022/10/14 02:00:21;;;;;;;99.65;56.60;;;13.90;99.90;;;;;;5019166;28;20289;-74
2022/10/14 02:02:48;;;;;;;76.45;48.90;;;13.90;99.90;;;;;;5017433;28;20234;-75
2022/10/14 02:05:20;;;;;;;113.75;53.83;;;13.90;99.90;;;;;;5016080;28;20597;-76
2022/10/14 02:07:51;;;;;;;100.68;53.15;;;13.90;99.90;;;;;;5005763;28;20274;-76
2022/10/14 02:10:37;;;;;;;90.40;52.38;;;13.90;99.90;;;;;;5019712;28;20284;-75
2022/10/14 02:13:19;;;;;;;92.10;52.63;;;13.90;99.90;;;;;;5009041;28;20717;-76
2022/10/14 02:15:57;;;;;;;89.65;51.85;;;13.90;99.90;;;;;;5017674;28;20202;-75
2022/10/14 02:18:33;;;;;;;104.30;54.65;;;13.90;99.90;;;;;;5007877;28;20267;-74
2022/10/14 02:21:07;;;;;;;97.03;53.42;;;13.90;99.90;;;;;;5015019;28;20611;-75
2022/10/14 02:23:41;;;;;;;97.50;54.75;;;13.90;99.90;;;;;;5038401;28;20223;-74
2022/10/14 02:26:09;;;;;;;90.45;51.78;;;13.90;99.90;;;;;;5027651;28;20227;-74
2022/10/14 02:28:37;;;;;;;83.70;52.08;;;13.90;99.90;;;;;;5025382;28;20732;-73
2022/10/14 02:31:10;;;;;;;94.40;55.70;;;13.90;99.90;;;;;;5016885;28;20284;-74
2022/10/14 02:33:40;;;;;;;90.20;55.15;;;14.00;99.90;;;;;;5036163;28;20251;-73
2022/10/14 02:36:09;;;;;;;101.60;59.30;;;14.10;99.90;;;;;;5018323;28;20277;-75
2022/10/14 02:38:37;;;;;;;110.30;57.97;;;14.00;99.90;;;;;;5025258;28;20304;-75
2022/10/14 02:41:07;;;;;;;99.35;56.45;;;14.00;99.90;;;;;;5021894;28;20280;-73
2022/10/14 02:43:34;;;;;;;115.70;60.95;;;14.00;99.90;;;;;;5013473;28;20669;-73
2022/10/14 02:46:03;;;;;;;123.45;61.97;;;13.90;99.90;;;;;;5019260;28;20684;-74
2022/10/14 02:48:31;;;;;;;101.57;59.05;;;13.90;99.90;;;;;;5015151;28;20260;-74
2022/10/14 02:50:58;;;;;;;89.65;54.97;;;13.90;99.90;;;;;;5015133;28;20204;-75
2022/10/14 02:53:25;;;;;;;89.10;56.10;;;14.00;99.90;;;;;;5006053;28;20232;-76
2022/10/14 02:55:52;;;;;;;75.85;50.45;;;14.00;99.90;;;;;;5024595;28;20203;-74
2022/10/14 02:58:19;;;;;;;75.85;52.95;;;14.00;99.90;;;;;;5021306;28;20311;-75
2022/10/14 03:00:48;;;;;;;73.07;50.35;;;14.10;99.90;;;;;;5012411;28;20612;-75
2022/10/14 03:03:15;;;;;;;107.78;55.17;;;14.20;99.90;;;;;;5019998;28;20255;-75
2022/10/14 03:05:43;;;;;;;110.97;58.25;;;14.10;99.90;;;;;;5003179;28;20633;-75
2022/10/14 03:08:10;;;;;;;82.57;53.22;;;14.10;99.90;;;;;;5014838;28;20310;-74
2022/10/14 03:10:38;;;;;;;77.75;49.78;;;14.20;99.90;;;;;;5014169;28;20664;-75
2022/10/14 03:13:05;;;;;;;94.57;54.58;;;14.20;99.90;;;;;;5013647;28;20687;-75
2022/10/14 03:15:33;;;;;;;67.80;48.38;;;14.30;99.90;;;;;;5010937;28;20634;-75
2022/10/14 03:18:00;;;;;;;69.53;49.50;;;14.30;99.90;;;;;;5026766;28;20230;-75
2022/10/14 03:20:27;;;;;;;89.90;54.50;;;14.20;99.90;;;;;;5021730;28;20208;-76
2022/10/14 03:22:55;;;;;;;77.90;50.97;;;14.30;99.90;;;;;;5011853;28;20288;-75
2022/10/14 03:25:22;;;;;;;91.55;55.45;;;14.30;99.90;;;;;;5020462;28;20702;-75
2022/10/14 03:27:50;;;;;;;86.80;53.30;;;14.30;99.90;;;;;;5012406;28;20237;-75
2022/10/14 03:30:17;;;;;;;79.78;51.80;;;14.20;99.90;;;;;;5022610;28;20578;-74
2022/10/14 03:32:44;;;;;;;94.93;52.22;;;14.20;99.90;;;;;;5006249;28;20200;-75
2022/10/14 03:35:10;;;;;;;88.30;55.35;;;14.10;99.90;;;;;;5013460;28;20284;-74
2022/10/14 03:37:37;;;;;;;106.47;57.10;;;14.10;99.90;;;;;;5023143;28;20314;-74
2022/10/14 03:40:07;;;;;;;111.97;61.40;;;14.10;99.90;;;;;;5020581;28;20205;-76
2022/10/14 03:42:34;;;;;;;106.35;57.60;;;13.90;99.90;;;;;;5010764;28;20212;-76
2022/10/14 03:45:01;;;;;;;84.20;52.95;;;14.00;99.90;;;;;;5021902;28;20656;-76
2022/10/14 03:47:27;;;;;;;94.05;54.42;;;14.00;99.90;;;;;;5020499;28;20299;-76
2022/10/14 03:49:55;;;;;;;105.57;56.67;;;13.90;99.90;;;;;;5016252;28;20243;-75
2022/10/14 03:52:22;;;;;;;97.43;56.50;;;13.90;99.90;;;;;;5011828;28;20263;-73
2022/10/14 03:54:50;;;;;;;129.73;64.05;;;13.90;99.90;;;;;;5016231;28;20210;-73
2022/10/14 03:57:18;;;;;;;125.13;63.08;;;13.80;99.90;;;;;;5026173;28;20259;-73
2022/10/14 03:59:45;;;;;;;112.00;59.95;;;13.70;99.90;;;;;;5022614;28;20318;-75
2022/10/14 04:02:12;;;;;;;88.95;56.60;;;13.70;99.90;;;;;;5021589;28;20228;-74
2022/10/14 04:04:39;;;;;;;95.50;56.00;;;13.90;99.90;;;;;;5030613;28;20246;-74
2022/10/14 04:07:06;;;;;;;96.10;58.00;;;13.80;99.90;;;;;;5015757;28;20220;-77
2022/10/14 04:09:33;;;;;;;103.88;59.30;;;13.80;99.90;;;;;;5034673;28;20208;-74
2022/10/14 04:12:00;;;;;;;121.80;63.03;;;13.80;99.90;;;;;;5022677;28;20303;-73
2022/10/14 04:14:28;;;;;;;118.75;62.65;;;13.80;99.90;;;;;;5020433;28;20211;-73
2022/10/14 04:16:55;;;;;;;132.05;66.30;;;13.70;99.90;;;;;;5019768;28;20282;-74
2022/10/14 04:19:22;;;;;;;134.80;68.22;;;13.70;99.90;;;;;;5024568;28;20228;-73
2022/10/14 04:21:49;;;;;;;122.55;65.00;;;13.70;99.90;;;;;;5033493;28;20196;-73
2022/10/14 04:24:16;;;;;;;116.40;64.88;;;13.70;99.90;;;;;;5020058;28;20276;-75
2022/10/14 04:26:43;;;;;;;123.20;66.32;;;13.70;99.90;;;;;;5022146;28;20607;-76
2022/10/14 04:29:10;;;;;;;133.48;69.15;;;13.80;99.90;;;;;;5024439;28;20259;-75
2022/10/14 04:31:38;;;;;;;108.63;62.92;;;13.80;99.90;;;;;;5022647;28;20205;-77
2022/10/14 04:34:05;;;;;;;102.30;58.45;;;13.80;99.90;;;;;;5019960;28;20286;-75
2022/10/14 04:36:32;;;;;;;111.70;62.00;;;13.80;99.90;;;;;;5022527;28;20193;-75
2022/10/14 04:38:59;;;;;;;108.95;64.13;;;13.90;99.90;;;;;;5024404;28;20252;-76
2022/10/14 04:41:26;;;;;;;98.72;59.58;;;13.90;99.90;;;;;;5026326;28;20219;-74
2022/10/14 04:43:53;;;;;;;116.57;60.38;;;13.90;99.90;;;;;;5020512;28;20236;-76
2022/10/14 04:46:20;;;;;;;95.97;59.42;;;13.90;99.90;;;;;;5019486;28;20250;-74
2022/10/14 04:48:49;;;;;;;105.05;65.32;;;13.90;99.90;;;;;;5026338;28;20219;-77
2022/10/14 04:51:16;;;;;;;94.07;55.85;;;14.00;99.90;;;;;;5017251;28;20656;-75
2022/10/14 04:53:43;;;;;;;102.47;58.72;;;14.00;99.90;;;;;;5002915;28;20236;-74
2022/10/14 04:56:10;;;;;;;116.07;61.70;;;14.00;99.90;;;;;;5029785;28;20240;-75
2022/10/14 04:58:37;;;;;;;106.78;61.30;;;14.00;99.90;;;;;;5025221;28;20307;-77
2022/10/14 05:01:04;;;;;;;99.10;59.85;;;14.00;99.90;;;;;;5023306;28;20291;-74
2022/10/14 05:03:31;;;;;;;95.18;58.20;;;14.00;99.90;;;;;;5021956;28;20276;-74
2022/10/14 05:05:59;;;;;;;102.32;57.38;;;14.00;99.90;;;;;;5020069;28;20261;-75
2022/10/14 05:08:26;;;;;;;104.82;61.00;;;14.00;99.90;;;;;;5007063;28;20286;-74
2022/10/14 05:10:53;;;;;;;92.28;55.25;;;14.00;99.90;;;;;;5025986;28;20291;-75
2022/10/14 05:13:20;;;;;;;83.22;55.28;;;14.00;99.90;;;;;;5022293;28;20266;-77
2022/10/14 05:15:48;;;;;;;75.80;51.72;;;14.10;99.90;;;;;;5018917;28;20220;-74
2022/10/14 05:18:15;;;;;;;94.13;55.70;;;14.20;99.90;;;;;;5018964;28;20298;-73
2022/10/14 05:20:41;;;;;;;91.85;55.85;;;14.10;99.90;;;;;;5009737;28;20202;-74
2022/10/14 05:23:10;;;;;;;79.32;51.65;;;14.10;99.90;;;;;;5019953;28;20204;-74
2022/10/14 05:25:37;;;;;;;93.00;54.40;;;14.00;99.90;;;;;;5013797;28;20268;-76
2022/10/14 05:28:04;;;;;;;101.28;55.53;;;14.00;99.90;;;;;;5018682;28;20249;-76
2022/10/14 05:30:31;;;;;;;92.95;54.03;;;13.90;99.90;;;;;;5014768;28;20243;-75
2022/10/14 05:32:58;;;;;;;81.43;51.97;;;14.00;99.90;;;;;;5026181;28;20236;-76
2022/10/14 05:35:25;;;;;;;77.10;47.65;;;14.10;99.90;;;;;;5022466;28;20578;-75
2022/10/14 05:37:55;;;;;;;106.70;57.20;;;14.10;99.90;;;;;;5007579;28;20646;-75
2022/10/14 05:40:24;;;;;;;105.50;57.75;;;14.00;99.90;;;;;;5026763;28;20235;-75
2022/10/14 05:42:51;;;;;;;95.72;55.70;;;14.00;99.90;;;;;;5015202;28;20206;-73
2022/10/14 05:45:18;;;;;;;84.50;54.67;;;14.00;99.90;;;;;;5022470;28;20684;-76
2022/10/14 05:47:45;;;;;;;82.32;52.42;;;14.00;99.90;;;;;;5022658;28;20228;-77
2022/10/14 05:50:13;;;;;;;87.03;52.20;;;13.90;99.90;;;;;;5024737;28;20200;-75
2022/10/14 05:52:40;;;;;;;86.43;52.40;;;13.90;99.90;;;;;;5036109;28;20205;-76
2022/10/14 05:55:08;;;;;;;100.35;55.55;;;13.90;99.90;;;;;;5023411;28;20275;-74
2022/10/14 05:57:36;;;;;;;80.50;50.75;;;13.90;99.90;;;;;;5020018;28;20311;-76
2022/10/14 06:00:05;;;;;;;102.35;54.35;;;14.00;99.90;;;;;;5031183;28;20292;-73
2022/10/14 06:02:32;;;;;;;83.82;51.65;;;14.00;99.90;;;;;;5032335;28;20200;-73
2022/10/14 06:05:00;;;;;;;90.22;56.30;;;14.00;99.90;;;;;;5024087;28;20313;-74
2022/10/14 06:07:27;;;;;;;78.43;50.92;;;14.10;99.90;;;;;;5030641;28;20240;-74
2022/10/14 06:09:54;;;;;;;103.15;53.38;;;14.10;99.90;;;;;;5028045;28;20200;-78
2022/10/14 06:12:22;;;;;;;104.38;54.90;;;14.00;99.90;;;;;;5023989;28;20208;-77
2022/10/14 06:14:50;;;;;;;86.32;52.30;;;13.90;99.90;;;;;;5013631;28;20235;-75
2022/10/14 06:17:18;;;;;;;81.68;51.75;;;13.90;99.90;;;;;;5021621;28;20309;-77
2022/10/14 06:19:44;;;;;;;107.25;55.10;;;13.90;99.90;;;;;;5010885;28;20283;-75
2022/10/14 06:22:12;;;;;;;107.63;55.13;;;13.90;99.90;;;;;;5022923;28;20735;-74
2022/10/14 06:24:39;;;;;;;123.60;59.55;;;13.80;99.90;;;;;;5023944;28;20207;-74
2022/10/14 06:27:07;;;;;;;116.78;57.38;;;13.70;99.90;;;;;;5020807;28;20322;-78
2022/10/14 06:29:36;;;;;;;116.57;61.28;;;13.70;99.90;;;;;;5018212;28;20201;-77
2022/10/14 06:32:06;;;;;;;114.22;58.30;;;13.70;99.90;;;;;;5026468;28;20643;-76
2022/10/14 06:34:34;;;;;;;117.82;58.53;;;13.60;99.90;;;;;;5017545;28;20728;-76
2022/10/14 06:37:02;;;;;;;113.05;55.30;;;13.60;99.90;;;;;;5028512;28;20217;-76
2022/10/14 06:39:28;;;;;;;113.45;54.72;;;13.60;99.90;;;;;;5024868;28;20666;-73
2022/10/14 06:41:55;;;;;;;117.15;59.00;;;13.60;99.90;;;;;;5015759;28;20200;-76
2022/10/14 06:44:22;;;;;;;113.95;56.03;;;13.60;99.90;;;;;;5029868;28;20721;-75
2022/10/14 06:46:50;;;;;;;98.32;52.30;;;13.70;99.90;;;;;;5025581;28;20334;-76
2022/10/14 06:49:19;;;;;;;116.55;54.92;;;13.60;99.90;;;;;;5029180;28;20266;-74
2022/10/14 06:51:46;;;;;;;109.13;57.47;;;13.60;99.90;;;;;;5025276;28;20197;-74
2022/10/14 06:54:13;;;;;;;101.93;53.30;;;13.60;99.90;;;;;;5022042;28;20296;-75
2022/10/14 06:56:40;;;;;;;82.78;48.63;;;13.60;99.90;;;;;;5017897;28;20197;-77
2022/10/14 06:59:07;;;;;;;103.88;52.33;;;13.70;99.90;;;;;;5012596;28;20267;-76
2022/10/14 07:01:35;;;;;;;97.82;49.15;;;13.70;99.90;;;;;;5015747;28;20283;-76
2022/10/14 07:04:04;;;;;;;98.25;51.50;;;13.70;99.90;;;;;;5016809;28;20251;-74
2022/10/14 07:06:32;;;;;;;98.00;48.85;;;13.70;99.90;;;;;;5014149;28;20225;-75
2022/10/14 07:08:59;;;;;;;92.78;49.75;;;13.80;99.90;;;;;;5017258;28;20308;-73
2022/10/14 07:11:27;;;;;;;82.82;48.92;;;13.80;99.90;;;;;;5011959;28;20224;-75
2022/10/14 07:13:55;;;;;;;89.70;50.08;;;13.90;99.90;;;;;;5021909;28;20284;-74
2022/10/14 07:16:22;;;;;;;71.18;44.35;;;14.10;99.90;;;;;;5018479;28;20283;-74
2022/10/14 07:18:49;;;;;;;73.28;44.75;;;14.20;99.90;;;;;;5022382;28;20271;-76
2022/10/14 07:21:16;;;;;;;70.40;41.53;;;14.40;99.90;;;;;;5028549;28;20727;-73
2022/10/14 07:23:45;;;;;;;78.45;44.33;;;14.50;99.90;;;;;;5023193;28;20629;-75
2022/10/14 07:26:12;;;;;;;77.32;44.13;;;14.50;99.90;;;;;;5025308;28;20724;-75
2022/10/14 07:28:39;;;;;;;83.07;43.88;;;14.50;99.90;;;;;;5021450;28;20307;-76
2022/10/14 07:31:09;;;;;;;68.60;41.25;;;14.60;99.90;;;;;;5023323;28;20634;-76
2022/10/14 07:33:37;;;;;;;68.15;40.03;;;14.70;99.90;;;;;;5020663;28;20252;-74
2022/10/14 07:36:08;;;;;;;57.75;36.92;;;14.90;99.90;;;;;;5025725;28;20574;-74
2022/10/14 07:38:35;;;;;;;60.63;39.38;;;14.90;99.90;;;;;;5027884;28;20224;-74
2022/10/14 07:41:08;;;;;;;61.30;37.78;;;15.00;99.90;;;;;;5011665;28;20782;-73
2022/10/14 07:43:35;;;;;;;58.20;38.03;;;15.00;99.90;;;;;;5010684;28;20197;-75
2022/10/14 07:46:04;;;;;;;68.60;40.85;;;15.00;99.90;;;;;;5020621;28;20201;-75
2022/10/14 07:48:32;;;;;;;65.68;40.42;;;15.00;99.90;;;;;;5019995;28;20304;-73
2022/10/14 07:50:59;;;;;;;56.88;34.45;;;14.90;99.90;;;;;;5019439;28;20205;-74
2022/10/14 07:53:37;;;;;;;61.10;35.20;;;15.00;99.90;;;;;;5023932;28;20267;-77
2022/10/14 07:56:06;;;;;;;52.13;33.20;;;14.90;99.90;;;;;;5016341;28;20270;-76
2022/10/14 07:58:33;;;;;;;54.80;34.63;;;14.90;99.90;;;;;;5021774;28;20253;-75
2022/10/14 08:01:00;;;;;;;55.67;34.55;;;14.90;99.90;;;;;;5016368;28;20284;-76
2022/10/14 08:03:27;;;;;;;59.15;36.63;;;15.10;99.90;;;;;;5010880;28;20245;-76
2022/10/14 08:06:00;;;;;;;55.63;32.53;;;15.30;99.90;;;;;;5014437;28;20256;-75
2022/10/14 08:08:28;;;;;;;53.20;33.72;;;15.20;99.90;;;;;;5025073;28;20260;-76
2022/10/14 08:11:02;;;;;;;52.28;32.33;;;15.30;99.90;;;;;;5016830;28;20203;-73
2022/10/14 08:13:31;;;;;;;49.38;31.40;;;15.40;99.90;;;;;;5023560;28;20243;-74
2022/10/14 08:16:00;;;;;;;47.97;30.65;;;15.50;99.90;;;;;;5019422;28;20199;-76
2022/10/14 08:18:27;;;;;;;47.20;27.10;;;15.70;99.90;;;;;;5016629;28;20717;-76
2022/10/14 08:20:55;;;;;;;46.65;29.83;;;15.50;99.90;;;;;;4996445;28;20282;-76
2022/10/14 08:23:22;;;;;;;42.72;28.42;;;15.70;99.90;;;;;;5015753;28;20215;-75
2022/10/14 08:25:49;;;;;;;44.50;28.58;;;15.70;99.90;;;;;;5011857;28;20722;-74
2022/10/14 08:28:16;;;;;;;37.27;26.50;;;15.80;99.90;;;;;;5017988;28;20653;-74
2022/10/14 08:30:45;;;;;;;37.90;29.10;;;16.10;99.90;;;;;;5009580;28;20459;-76
2022/10/14 08:33:13;;;;;;;34.73;24.73;;;16.70;99.90;;;;;;5013165;28;20514;-76
2022/10/14 08:35:42;;;;;;;38.23;26.33;;;17.20;99.90;;;;;;5002301;28;20448;-75
2022/10/14 08:38:10;;;;;;;38.00;26.20;;;17.80;99.90;;;;;;5009482;28;21001;-74
2022/10/14 08:40:53;;;;;;;33.93;25.87;;;17.80;99.90;;;;;;5007203;28;20546;-77
2022/10/14 08:43:27;;;;;;;39.03;22.80;;;18.00;99.90;;;;;;5005389;28;20530;-76
2022/10/14 08:46:00;;;;;;;33.70;24.07;;;17.90;99.90;;;;;;5005506;28;20451;-76
2022/10/14 08:48:29;;;;;;;39.07;24.80;;;17.90;99.90;;;;;;5011535;28;20498;-74
2022/10/14 08:51:02;;;;;;;43.13;25.93;;;17.80;99.90;;;;;;5012185;28;20926;-75
2022/10/14 08:53:31;;;;;;;35.40;23.30;;;17.70;99.90;;;;;;5003030;28;20452;-75
2022/10/14 08:56:00;;;;;;;36.03;27.30;;;17.30;99.90;;;;;;5025412;28;20937;-74
2022/10/14 08:58:33;;;;;;;35.37;25.23;;;17.30;99.90;;;;;;5021375;28;20460;-77
2022/10/14 09:01:12;;;;;;;31.83;23.23;;;17.20;99.90;;;;;;5023586;28;20918;-75
2022/10/14 09:03:39;;;;;;;36.47;26.83;;;17.30;99.90;;;;;;5023543;28;20506;-75
2022/10/14 09:06:11;;;;;;;32.50;23.43;;;16.80;99.90;;;;;;5013748;28;20439;-74
2022/10/14 09:08:42;;;;;;;30.50;22.60;;;17.00;99.90;;;;;;5020724;28;20491;-73
2022/10/14 09:11:14;;;;;;;31.27;21.47;;;17.10;99.90;;;;;;5031914;28;20459;-75
2022/10/14 09:13:43;;;;;;;30.80;23.30;;;17.00;99.90;;;;;;5017876;28;20451;-75
2022/10/14 09:16:19;;;;;;;35.43;25.63;;;17.00;99.90;;;;;;5016010;28;20443;-77
2022/10/14 09:18:50;;;;;;;31.70;23.03;;;17.00;99.90;;;;;;5022529;28;20536;-75
2022/10/14 09:21:28;;;;;;;28.97;21.53;;;17.60;99.90;;;;;;5018009;28;20456;-74
2022/10/14 09:24:00;;;;;;;29.30;21.97;;;18.10;99.90;;;;;;5035261;28;20474;-76
2022/10/14 09:26:38;;;;;;;28.77;20.67;;;17.90;99.90;;;;;;5012603;28;20806;-75
2022/10/14 09:29:06;;;;;;;33.63;23.70;;;17.90;99.90;;;;;;5008461;28;20470;-76
2022/10/14 09:31:35;;;;;;;29.67;23.37;;;17.80;99.90;;;;;;5022110;28;20951;-74
2022/10/14 09:34:02;;;;;;;33.07;23.03;;;17.40;99.90;;;;;;5028284;28;20497;-74
2022/10/14 09:36:29;;;;;;;33.87;24.47;;;17.10;99.90;;;;;;5028687;28;20448;-74
2022/10/14 09:38:57;;;;;;;29.20;21.33;;;17.10;99.90;;;;;;5025936;28;20542;-77
2022/10/14 09:41:30;;;;;;;31.27;22.10;;;17.20;99.90;;;;;;5022315;28;21041;-78
2022/10/14 09:44:20;;;;;;;32.50;23.03;;;17.40;99.90;;;;;;5027117;28;20443;-74
2022/10/14 09:46:52;;;;;;;31.40;23.97;;;17.40;99.90;;;;;;5016909;28;20432;-74
2022/10/14 09:49:29;;;;;;;28.90;19.77;;;17.20;99.90;;;;;;5016995;28;20499;-74
2022/10/14 09:51:56;;;;;;;28.63;20.23;;;17.40;99.90;;;;;;5024774;28;20495;-76
2022/10/14 09:54:28;;;;;;;25.27;19.57;;;17.60;99.90;;;;;;5018701;28;20435;-75
2022/10/14 09:57:06;;;;;;;26.60;19.33;;;17.80;99.90;;;;;;5020037;28;20484;-76
2022/10/14 09:59:34;;;;;;;22.60;17.63;;;18.10;99.90;;;;;;5014354;28;20440;-77
2022/10/14 10:02:04;;;;;;;26.17;18.67;;;18.60;99.90;;;;;;5019085;28;20443;-79
2022/10/14 10:04:37;;;;;;;24.00;19.13;;;18.60;99.90;;;;;;5015098;28;20450;-76
2022/10/14 10:07:06;;;;;;;27.20;19.50;;;18.50;99.90;;;;;;5020327;28;20498;-77
2022/10/14 10:09:34;;;;;;;22.37;17.27;;;18.40;99.90;;;;;;5019539;28;20479;-77
2022/10/14 10:12:21;;;;;;;20.20;15.47;;;19.10;99.90;;;;;;5013014;28;20487;-74
2022/10/14 10:14:57;;;;;;;22.50;15.97;;;19.60;99.90;;;;;;5022677;28;20525;-79
2022/10/14 10:17:26;;;;;;;25.17;17.37;;;20.10;99.90;;;;;;5019195;28;20472;-74
2022/10/14 10:20:08;;;;;;;26.70;18.63;;;20.40;99.90;;;;;;5022503;28;20442;-76
2022/10/14 10:22:37;;;;;;;22.97;18.33;;;20.40;99.90;;;;;;5023805;28;20455;-76
2022/10/14 10:25:25;;;;;;;26.57;18.10;;;20.20;99.90;;;;;;5024497;28;20448;-75
2022/10/14 10:27:53;;;;;;;26.93;19.27;;;20.10;99.90;;;;;;5011623;28;20499;-76
2022/10/14 10:30:26;;;;;;;30.10;19.23;;;19.70;99.90;;;;;;5013259;28;20436;-75
2022/10/14 10:33:27;;;;;;;20.23;15.30;;;19.70;99.90;;;;;;5014563;28;20513;-76
2022/10/14 10:36:08;;;;;;;21.73;16.43;;;19.50;99.90;;;;;;5022829;28;20486;-74
2022/10/14 10:38:45;;;;;;;20.63;15.80;;;19.40;99.90;;;;;;5020841;28;20498;-73
2022/10/14 10:41:26;;;;;;;20.23;16.23;;;19.40;99.90;;;;;;5013925;28;20440;-74
2022/10/14 10:44:25;;;;;;;22.60;17.13;;;19.40;99.90;;;;;;5006110;28;20482;-75
2022/10/14 10:47:15;;;;;;;22.03;15.80;;;19.40;99.90;;;;;;4998379;28;20535;-76
2022/10/14 10:50:08;;;;;;;20.30;16.80;;;19.50;99.90;;;;;;5019021;28;20444;-75
2022/10/14 10:52:48;;;;;;;23.40;16.93;;;19.70;99.90;;;;;;5021968;28;20467;-73
2022/10/14 10:55:26;;;;;;;22.23;14.80;;;19.60;99.90;;;;;;5025403;28;20532;-75
2022/10/14 10:58:02;;;;;;;20.60;15.40;;;19.40;99.90;;;;;;5025415;28;21021;-75
2022/10/14 11:00:36;;;;;;;19.67;13.97;;;19.00;99.90;;;;;;5020506;28;20953;-76
2022/10/14 11:03:19;;;;;;;19.30;15.77;;;18.70;99.90;;;;;;5020228;28;20928;-75
2022/10/14 11:05:58;;;;;;;17.90;14.10;;;18.40;99.90;;;;;;5027783;28;20436;-75
2022/10/14 11:14:50;;;;;;;18.27;13.87;;;18.00;99.90;;;;;;5017678;28;20466;-75
2022/10/14 11:17:26;;;;;;;21.07;13.77;;;18.00;99.90;;;;;;5018061;28;20463;-72
2022/10/14 11:19:59;;;;;;;19.93;12.43;;;17.90;99.90;;;;;;5022765;28;20550;-75
2022/10/14 11:22:42;;;;;;;16.27;13.17;;;17.90;99.90;;;;;;5026698;28;20519;-73
2022/10/14 11:25:22;;;;;;;18.07;13.80;;;17.70;99.90;;;;;;5030600;28;20526;-76
2022/10/14 11:27:59;;;;;;;16.77;12.03;;;17.60;99.90;;;;;;5012498;28;20492;-74
2022/10/14 11:30:42;;;;;;;18.80;14.93;;;17.50;99.90;;;;;;5023066;28;20457;-77
2022/10/14 11:33:38;;;;;;;16.33;12.50;;;17.50;99.90;;;;;;5020941;28;20454;-75
2022/10/14 11:36:22;;;;;;;21.87;16.47;;;17.50;99.90;;;;;;5012720;28;20495;-75
2022/10/14 11:39:09;;;;;;;17.93;12.20;;;17.50;99.90;;;;;;5019369;28;20509;-75
2022/10/14 11:42:00;;;;;;;19.37;16.57;;;17.60;99.90;;;;;;5024644;28;20439;-78
2022/10/14 11:44:32;;;;;;;22.33;18.67;;;17.60;99.90;;;;;;5020349;28;20523;-76
2022/10/14 11:47:04;;;;;;;24.30;17.57;;;17.60;99.90;;;;;;5021722;28;20464;-77
2022/10/14 11:49:36;;;;;;;22.20;19.60;;;17.60;99.90;;;;;;5014584;28;20482;-74
2022/10/14 11:52:07;;;;;;;28.80;19.90;;;17.50;99.90;;;;;;5016775;28;20540;-77
2022/10/14 11:54:39;;;;;;;25.00;20.67;;;17.40;99.90;;;;;;5027313;28;20454;-76
2022/10/14 11:57:13;;;;;;;28.27;20.80;;;17.40;99.90;;;;;;5025971;28;20504;-79
2022/10/14 11:59:58;;;;;;;31.33;22.73;;;17.30;99.90;;;;;;5017158;28;21028;-74
2022/10/14 12:02:38;;;;;;;24.70;19.67;;;17.20;99.90;;;;;;5004078;28;20525;-75
2022/10/14 12:05:14;;;;;;;25.63;20.10;;;17.30;99.90;;;;;;5021147;28;20534;-75
2022/10/14 12:07:48;;;;;;;28.00;21.90;;;17.40;99.90;;;;;;5014265;28;20498;-76
2022/10/14 12:10:25;;;;;;;32.33;24.30;;;17.40;99.90;;;;;;5014227;28;20535;-75
2022/10/14 12:12:55;;;;;;;33.23;25.17;;;17.50;99.90;;;;;;5002008;28;20535;-74
2022/10/14 12:15:25;;;;;;;31.50;25.73;;;17.60;99.90;;;;;;5014251;28;20470;-77
2022/10/14 12:17:55;;;;;;;29.53;23.90;;;17.70;99.90;;;;;;5020057;28;20545;-75
2022/10/14 12:20:33;;;;;;;33.27;24.73;;;17.80;99.90;;;;;;5022677;28;20529;-75
2022/10/14 12:23:02;;;;;;;31.70;23.50;;;17.90;99.90;;;;;;5004517;28;20436;-75
2022/10/14 12:25:38;;;;;;;31.20;23.20;;;17.80;99.90;;;;;;5017548;28;20440;-77
2022/10/14 12:28:07;;;;;;;30.33;24.20;;;18.00;99.90;;;;;;5013775;28;20520;-78
2022/10/14 12:30:42;;;;;;;27.13;22.27;;;18.00;99.90;;;;;;5016536;28;20459;-77
2022/10/14 12:33:11;;;;;;;33.07;26.30;;;18.10;99.90;;;;;;5025107;28;20807;-74
2022/10/14 12:35:57;;;;;;;31.37;24.27;;;18.00;99.90;;;;;;5010035;28;20543;-76
2022/10/14 12:38:25;;;;;;;33.30;26.67;;;18.00;99.90;;;;;;5009188;28;20771;-77
2022/10/14 12:40:56;;;;;;;31.57;25.93;;;17.90;99.90;;;;;;5007175;28;20462;-76
2022/10/14 12:43:25;;;;;;;32.10;25.33;;;17.80;99.90;;;;;;5016852;28;20448;-78
2022/10/14 12:46:16;;;;;;;27.67;23.03;;;18.00;99.90;;;;;;5013701;28;20938;-76
2022/10/14 12:48:50;;;;;;;28.00;21.90;;;17.90;99.90;;;;;;4997232;28;20584;-77
2022/10/14 12:51:20;;;;;;;26.13;22.27;;;18.10;99.90;;;;;;5021437;28;20950;-75